Time;durP1;ratioP1;P1;durP2;ratioP2;P2;SDS_P1;SDS_P2;PMS_P1;PMS_P2;Temp;Humidity;BMP_temperature;BMP_pressure;BME280_temperature;BME280_humidity;BME280_pressure;Samples;Min_cycle;Max_cycle;Signal;HPM_P1;HPM_P2
2022/06/10 00:00:14;;;;;;;;;6.00;3.75;;;;;;;;5004057;28;45486;-66
2022/06/10 00:02:43;;;;;;;;;3.75;3.50;;;;;;;;4955089;28;46360;-66
2022/06/10 00:05:09;;;;;;;;;4.00;3.75;;;;;;;;4972883;28;45885;-66
2022/06/10 00:07:34;;;;;;;;;2.75;2.75;;;;;;;;4972128;28;45710;-65
2022/06/10 00:09:59;;;;;;;;;3.75;3.75;;;;;;;;4973648;28;45550;-66
2022/06/10 00:12:24;;;;;;;;;4.25;3.25;;;;;;;;5007239;28;46195;-67
2022/06/10 00:14:50;;;;;;;;;7.00;4.00;;;;;;;;4975781;28;45926;-67
2022/06/10 00:17:17;;;;;;;;;3.75;3.50;;;;;;;;4976017;28;46470;-66
2022/06/10 00:19:42;;;;;;;;;4.00;4.00;;;;;;;;4974951;28;45568;-67
2022/06/10 00:22:08;;;;;;;;;5.75;2.75;;;;;;;;5007103;28;47509;-66
2022/06/10 00:24:33;;;;;;;;;3.25;3.25;;;;;;;;4975642;28;45403;-66
2022/06/10 00:26:58;;;;;;;;;3.00;3.00;;;;;;;;4974250;28;45513;-66
2022/06/10 00:29:24;;;;;;;;;3.75;2.25;;;;;;;;4975769;28;45437;-66
2022/06/10 00:31:49;;;;;;;;;2.50;2.50;;;;;;;;4990547;28;47438;-66
2022/06/10 00:34:14;;;;;;;;;4.25;3.00;;;;;;;;5006749;28;45532;-66
2022/06/10 00:36:40;;;;;;;;;2.50;2.50;;;;;;;;5006818;28;45488;-65
2022/06/10 00:39:05;;;;;;;;;2.25;2.25;;;;;;;;4975561;28;45889;-67
2022/06/10 00:41:30;;;;;;;;;4.25;3.25;;;;;;;;4975325;28;45823;-67
2022/06/10 00:43:55;;;;;;;;;4.50;3.00;;;;;;;;5007441;28;46074;-67
2022/06/10 00:46:23;;;;;;;;;3.00;3.00;;;;;;;;4975175;28;45384;-65
2022/06/10 00:49:09;;;;;;;;;2.50;2.50;;;;;;;;4973905;28;46009;-65
2022/06/10 00:51:43;;;;;;;;;2.50;2.50;;;;;;;;4974521;28;45847;-66
2022/06/10 00:54:27;;;;;;;;;3.75;2.75;;;;;;;;4974893;28;45452;-66
2022/06/10 00:56:54;;;;;;;;;2.00;2.00;;;;;;;;4961254;28;45852;-66
2022/06/10 00:59:24;;;;;;;;;1.75;1.75;;;;;;;;4975061;28;45470;-65
2022/06/10 01:02:02;;;;;;;;;2.00;2.00;;;;;;;;4990301;28;51279;-64
2022/06/10 01:04:28;;;;;;;;;2.00;2.00;;;;;;;;4974546;28;45576;-65
2022/06/10 01:06:54;;;;;;;;;3.50;3.50;;;;;;;;4973545;28;45530;-65
2022/06/10 01:09:19;;;;;;;;;3.50;3.50;;;;;;;;4974539;28;45473;-65
2022/06/10 01:11:58;;;;;;;;;2.75;1.75;;;;;;;;4974074;28;46174;-65
2022/06/10 01:14:30;;;;;;;;;4.50;2.75;;;;;;;;4973001;28;46219;-66
2022/06/10 01:17:22;;;;;;;;;1.75;1.75;;;;;;;;4989808;28;45980;-65
2022/06/10 01:20:06;;;;;;;;;3.00;2.50;;;;;;;;4974279;28;45728;-66
2022/06/10 01:22:44;;;;;;;;;1.75;1.75;;;;;;;;4969853;28;46813;-66
2022/06/10 01:25:26;;;;;;;;;2.50;2.00;;;;;;;;4974007;28;45710;-66
2022/06/10 01:28:03;;;;;;;;;2.75;2.75;;;;;;;;4973945;28;45434;-66
2022/06/10 01:30:47;;;;;;;;;3.00;3.00;;;;;;;;5005561;28;45472;-65
2022/06/10 01:33:29;;;;;;;;;2.50;2.50;;;;;;;;4988916;28;48567;-66
2022/06/10 01:36:00;;;;;;;;;2.00;2.00;;;;;;;;4974326;28;45493;-66
2022/06/10 01:38:44;;;;;;;;;3.50;3.25;;;;;;;;4974267;28;45612;-65
2022/06/10 01:41:14;;;;;;;;;3.00;3.00;;;;;;;;4974821;28;45429;-66
2022/06/10 01:43:54;;;;;;;;;5.75;3.00;;;;;;;;4974499;28;45822;-65
2022/06/10 01:46:26;;;;;;;;;2.50;2.00;;;;;;;;4974023;28;45758;-65
2022/06/10 01:49:03;;;;;;;;;3.00;2.00;;;;;;;;4974432;28;45451;-67
2022/06/10 01:51:46;;;;;;;;;4.00;2.75;;;;;;;;4974265;28;45485;-65
2022/06/10 01:54:20;;;;;;;;;4.50;3.00;;;;;;;;4974076;28;46184;-65
2022/06/10 01:56:48;;;;;;;;;2.25;1.00;;;;;;;;4959442;28;45866;-65
2022/06/10 01:59:13;;;;;;;;;2.50;2.50;;;;;;;;4972393;28;45354;-65
2022/06/10 02:01:40;;;;;;;;;3.75;3.75;;;;;;;;5005583;28;45727;-66
2022/06/10 02:04:12;;;;;;;;;3.50;2.75;;;;;;;;4973191;28;46284;-66
2022/06/10 02:06:41;;;;;;;;;3.00;3.00;;;;;;;;4973160;28;45682;-64
2022/06/10 02:09:11;;;;;;;;;3.50;2.75;;;;;;;;4972168;28;45675;-65
2022/06/10 02:11:38;;;;;;;;;2.00;2.00;;;;;;;;4972050;28;45585;-65
2022/06/10 02:14:10;;;;;;;;;3.00;3.00;;;;;;;;4973695;28;45514;-64
2022/06/10 02:16:39;;;;;;;;;3.75;3.75;;;;;;;;4973095;28;45394;-65
2022/06/10 02:19:13;;;;;;;;;2.00;2.00;;;;;;;;4972720;28;48726;-65
2022/06/10 02:21:42;;;;;;;;;2.75;2.75;;;;;;;;4973163;28;45494;-65
2022/06/10 02:24:17;;;;;;;;;5.25;3.50;;;;;;;;4972975;28;46353;-66
2022/06/10 02:26:43;;;;;;;;;3.75;3.75;;;;;;;;4955467;28;45625;-65
2022/06/10 02:29:10;;;;;;;;;4.00;2.00;;;;;;;;4972343;28;45425;-65
2022/06/10 02:31:42;;;;;;;;;5.00;2.75;;;;;;;;4972650;28;45580;-66
2022/06/10 02:34:07;;;;;;;;;2.50;2.50;;;;;;;;4972139;28;45471;-65
2022/06/10 02:36:36;;;;;;;;;3.50;3.50;;;;;;;;4971379;28;46111;-65
2022/06/10 02:39:06;;;;;;;;;2.00;2.00;;;;;;;;5004443;28;45517;-65
2022/06/10 02:41:57;;;;;;;;;3.25;2.25;;;;;;;;4972890;28;45455;-66
2022/06/10 02:44:49;;;;;;;;;6.00;5.00;;;;;;;;4971938;28;47181;-65
2022/06/10 02:47:17;;;;;;;;;1.50;1.50;;;;;;;;4966332;28;46340;-66
2022/06/10 02:49:42;;;;;;;;;2.75;2.75;;;;;;;;4954566;28;45706;-66
2022/06/10 02:52:09;;;;;;;;;4.25;4.25;;;;;;;;4937552;28;45628;-66
2022/06/10 02:54:36;;;;;;;;;3.00;3.00;;;;;;;;4937366;28;47549;-66
2022/06/10 02:57:10;;;;;;;;;1.50;1.50;;;;;;;;4936196;28;45637;-65
2022/06/10 03:02:23;;;;;;;;;2.75;2.75;;;;;;;;4965815;28;45778;-65
2022/06/10 03:05:01;;;;;;;;;6.50;5.00;;;;;;;;4953052;28;46606;-65
2022/06/10 03:07:26;;;;;;;;;2.00;2.00;;;;;;;;4953466;28;46643;-65
2022/06/10 03:10:01;;;;;;;;;3.25;3.25;;;;;;;;4953799;28;45970;-65
2022/06/10 03:12:47;;;;;;;;;2.00;2.00;;;;;;;;4952261;28;45775;-66
2022/06/10 03:15:27;;;;;;;;;2.25;2.00;;;;;;;;4915523;28;46140;-66
2022/06/10 03:18:11;;;;;;;;;3.75;2.50;;;;;;;;4900105;28;45501;-67
2022/06/10 03:20:49;;;;;;;;;3.75;3.75;;;;;;;;4905453;28;45871;-67
2022/06/10 03:23:18;;;;;;;;;5.50;4.00;;;;;;;;4905796;28;45560;-66
2022/06/10 03:25:47;;;;;;;;;5.25;4.00;;;;;;;;4911523;28;46228;-65
2022/06/10 03:28:17;;;;;;;;;2.25;2.25;;;;;;;;4910619;28;45655;-65
2022/06/10 03:30:56;;;;;;;;;3.50;3.50;;;;;;;;4910820;28;45645;-65
2022/06/10 03:33:28;;;;;;;;;3.75;2.50;;;;;;;;4910576;28;45508;-65
2022/06/10 03:36:00;;;;;;;;;4.50;2.75;;;;;;;;4895741;28;47636;-65
2022/06/10 03:38:25;;;;;;;;;2.75;2.75;;;;;;;;4910288;28;45541;-65
2022/06/10 03:40:55;;;;;;;;;3.00;2.50;;;;;;;;4912658;28;45480;-65
2022/06/10 03:43:21;;;;;;;;;2.50;2.50;;;;;;;;4926841;28;45646;-64
2022/06/10 03:45:49;;;;;;;;;3.50;3.00;;;;;;;;4906106;28;48454;-65
2022/06/10 03:48:16;;;;;;;;;3.00;3.00;;;;;;;;4900047;28;45596;-65
2022/06/10 03:50:42;;;;;;;;;3.75;3.75;;;;;;;;4910747;28;45692;-66
2022/06/10 03:53:12;;;;;;;;;6.75;3.75;;;;;;;;4962453;28;45679;-65
2022/06/10 03:55:38;;;;;;;;;3.75;3.75;;;;;;;;4972676;28;45430;-65
2022/06/10 03:58:03;;;;;;;;;4.75;2.75;;;;;;;;5003631;28;45536;-65
2022/06/10 04:00:28;;;;;;;;;4.00;3.75;;;;;;;;4972420;28;45435;-65
2022/06/10 04:02:53;;;;;;;;;2.00;2.00;;;;;;;;4972531;28;45391;-65
2022/06/10 04:05:19;;;;;;;;;3.50;2.75;;;;;;;;4970928;28;48321;-65
2022/06/10 04:07:44;;;;;;;;;2.50;2.50;;;;;;;;4972585;28;45566;-65
2022/06/10 04:10:15;;;;;;;;;6.00;5.00;;;;;;;;4970899;28;45703;-64
2022/06/10 04:12:41;;;;;;;;;3.50;3.00;;;;;;;;4972471;28;45320;-65
2022/06/10 04:15:07;;;;;;;;;4.00;3.75;;;;;;;;4971890;28;45537;-66
2022/06/10 04:17:32;;;;;;;;;3.75;1.50;;;;;;;;4972191;28;45520;-66
2022/06/10 04:19:59;;;;;;;;;2.00;2.00;;;;;;;;5003977;28;45444;-65
2022/06/10 04:22:24;;;;;;;;;4.50;3.50;;;;;;;;5003350;28;45459;-65
2022/06/10 04:24:50;;;;;;;;;4.50;2.50;;;;;;;;4971817;28;47365;-65
2022/06/10 04:27:15;;;;;;;;;3.00;3.00;;;;;;;;4971878;28;45775;-65
2022/06/10 04:29:40;;;;;;;;;3.50;3.50;;;;;;;;4971886;28;45820;-64
2022/06/10 04:32:06;;;;;;;;;3.25;3.00;;;;;;;;4972612;28;45469;-64
2022/06/10 04:34:31;;;;;;;;;4.00;3.25;;;;;;;;4986535;28;46411;-65
2022/06/10 04:36:57;;;;;;;;;3.75;3.75;;;;;;;;5003240;28;45517;-65
2022/06/10 04:39:22;;;;;;;;;4.00;2.75;;;;;;;;4972000;28;45596;-64
2022/06/10 04:41:47;;;;;;;;;3.50;3.50;;;;;;;;4971994;28;45483;-65
2022/06/10 04:44:12;;;;;;;;;3.75;3.75;;;;;;;;4972172;28;45881;-65
2022/06/10 04:46:39;;;;;;;;;7.00;4.50;;;;;;;;4971957;28;45796;-65
2022/06/10 04:49:05;;;;;;;;;4.25;3.25;;;;;;;;4970293;28;45440;-65
2022/06/10 04:51:30;;;;;;;;;7.25;3.50;;;;;;;;4970117;28;45602;-65
2022/06/10 04:53:56;;;;;;;;;2.75;2.75;;;;;;;;4971508;28;47679;-65
2022/06/10 04:56:21;;;;;;;;;7.00;3.50;;;;;;;;4972605;28;45688;-65
2022/06/10 04:58:46;;;;;;;;;5.00;3.75;;;;;;;;4975831;28;45454;-65
2022/06/10 05:01:11;;;;;;;;;3.50;3.50;;;;;;;;4975178;28;45457;-65
2022/06/10 05:03:37;;;;;;;;;5.00;3.00;;;;;;;;4974903;28;45710;-65
2022/06/10 05:06:03;;;;;;;;;4.25;3.00;;;;;;;;4975180;28;45495;-65
2022/06/10 05:08:28;;;;;;;;;4.50;3.25;;;;;;;;4975097;28;45807;-66
2022/06/10 05:10:53;;;;;;;;;4.75;4.75;;;;;;;;4975319;28;45483;-65
2022/06/10 05:13:20;;;;;;;;;2.25;2.25;;;;;;;;4974813;28;45715;-66
2022/06/10 05:15:46;;;;;;;;;2.25;2.25;;;;;;;;5006356;28;45499;-66
2022/06/10 05:18:11;;;;;;;;;3.75;3.75;;;;;;;;4973739;28;45445;-65
2022/06/10 05:20:39;;;;;;;;;3.25;3.25;;;;;;;;4974244;28;45590;-64
2022/06/10 05:23:06;;;;;;;;;4.25;4.25;;;;;;;;4989563;28;48713;-65
2022/06/10 05:25:31;;;;;;;;;7.75;5.00;;;;;;;;5005542;28;46391;-65
2022/06/10 05:27:57;;;;;;;;;2.75;2.75;;;;;;;;4974760;28;45466;-66
2022/06/10 05:30:23;;;;;;;;;4.00;3.00;;;;;;;;4974464;28;45549;-66
2022/06/10 05:32:49;;;;;;;;;3.00;3.00;;;;;;;;4974652;28;46176;-66
2022/06/10 05:35:15;;;;;;;;;2.50;2.50;;;;;;;;4974725;28;45443;-65
2022/06/10 05:37:41;;;;;;;;;3.50;3.50;;;;;;;;4974969;28;45605;-65
2022/06/10 05:40:07;;;;;;;;;3.75;3.75;;;;;;;;4974190;28;46020;-65
2022/06/10 05:42:32;;;;;;;;;6.00;3.75;;;;;;;;4972659;28;48155;-66
2022/06/10 05:44:57;;;;;;;;;4.50;3.50;;;;;;;;4974483;28;46059;-65
2022/06/10 05:47:24;;;;;;;;;3.00;1.50;;;;;;;;4973304;28;45426;-67
2022/06/10 05:49:50;;;;;;;;;6.50;3.75;;;;;;;;4989947;28;45484;-66
2022/06/10 05:52:17;;;;;;;;;3.00;3.00;;;;;;;;4973840;28;45588;-65
2022/06/10 05:54:43;;;;;;;;;3.00;1.50;;;;;;;;4973971;28;45485;-66
2022/06/10 05:57:09;;;;;;;;;6.00;3.50;;;;;;;;4972772;28;45442;-67
2022/06/10 05:59:34;;;;;;;;;2.50;2.50;;;;;;;;4974198;28;46113;-66
2022/06/10 06:02:01;;;;;;;;;4.50;3.00;;;;;;;;4989514;28;48639;-65
2022/06/10 06:04:26;;;;;;;;;3.25;3.25;;;;;;;;5005545;28;46205;-67
2022/06/10 06:06:51;;;;;;;;;2.25;1.25;;;;;;;;4973163;28;45435;-66
2022/06/10 06:09:17;;;;;;;;;2.50;2.50;;;;;;;;4973898;28;45537;-65
2022/06/10 06:11:42;;;;;;;;;3.75;3.75;;;;;;;;4973821;28;46273;-64
2022/06/10 06:14:08;;;;;;;;;5.00;3.75;;;;;;;;4974715;28;45475;-66
2022/06/10 06:16:33;;;;;;;;;2.50;2.50;;;;;;;;4974028;28;45664;-65
2022/06/10 06:18:58;;;;;;;;;1.25;1.25;;;;;;;;4973781;28;45442;-67
2022/06/10 06:21:24;;;;;;;;;2.50;2.50;;;;;;;;4973596;28;46073;-66
2022/06/10 06:23:49;;;;;;;;;3.50;2.50;;;;;;;;4973934;28;45407;-66
2022/06/10 06:26:15;;;;;;;;;3.00;1.50;;;;;;;;4974002;28;45499;-66
2022/06/10 06:28:41;;;;;;;;;2.50;2.50;;;;;;;;4973829;28;45687;-66
2022/06/10 06:31:06;;;;;;;;;3.00;3.00;;;;;;;;4973645;28;45546;-65
2022/06/10 06:33:31;;;;;;;;;2.00;2.00;;;;;;;;4973385;28;45468;-65
2022/06/10 06:35:56;;;;;;;;;1.25;1.25;;;;;;;;4973721;28;45760;-66
2022/06/10 06:38:22;;;;;;;;;4.25;3.50;;;;;;;;4973800;28;45390;-66
2022/06/10 06:40:47;;;;;;;;;5.00;3.00;;;;;;;;4974029;28;45635;-66
2022/06/10 06:43:13;;;;;;;;;3.00;2.00;;;;;;;;4973517;28;45505;-66
2022/06/10 06:45:40;;;;;;;;;3.50;2.50;;;;;;;;5005079;28;45706;-66
2022/06/10 06:48:10;;;;;;;;;2.25;2.25;;;;;;;;4973303;28;45866;-66
2022/06/10 06:50:37;;;;;;;;;2.00;2.00;;;;;;;;4972571;28;46750;-66
2022/06/10 06:53:02;;;;;;;;;1.75;1.75;;;;;;;;4972382;28;45619;-66
2022/06/10 06:55:27;;;;;;;;;2.25;1.75;;;;;;;;4973160;28;45624;-66
2022/06/10 06:57:53;;;;;;;;;3.75;2.75;;;;;;;;4973339;28;45806;-66
2022/06/10 07:00:18;;;;;;;;;4.50;4.50;;;;;;;;4972980;28;46321;-66
2022/06/10 07:02:44;;;;;;;;;2.75;2.75;;;;;;;;5004764;28;45974;-65
2022/06/10 07:05:11;;;;;;;;;2.25;2.25;;;;;;;;4973947;28;45343;-66
2022/06/10 07:07:36;;;;;;;;;2.75;2.75;;;;;;;;4973034;28;45660;-66
2022/06/10 07:10:02;;;;;;;;;5.50;3.00;;;;;;;;4972747;28;46562;-66
2022/06/10 07:12:28;;;;;;;;;2.75;2.75;;;;;;;;4972914;28;45646;-66
2022/06/10 07:14:53;;;;;;;;;4.25;3.00;;;;;;;;4972999;28;46127;-66
2022/06/10 07:17:19;;;;;;;;;2.50;1.75;;;;;;;;4971552;28;45976;-67
2022/06/10 07:19:48;;;;;;;;;2.50;1.75;;;;;;;;4973231;28;45686;-66
2022/06/10 07:22:13;;;;;;;;;2.00;2.00;;;;;;;;4971290;28;45600;-66
2022/06/10 07:24:38;;;;;;;;;5.00;3.00;;;;;;;;4972819;28;45370;-66
2022/06/10 07:27:04;;;;;;;;;3.00;3.00;;;;;;;;4971341;28;45498;-66
2022/06/10 07:29:30;;;;;;;;;2.00;2.00;;;;;;;;4971419;28;47588;-66
2022/06/10 07:31:55;;;;;;;;;1.50;1.50;;;;;;;;4988193;28;46443;-65
2022/06/10 07:34:20;;;;;;;;;3.00;2.00;;;;;;;;4972891;28;45503;-66
2022/06/10 07:36:46;;;;;;;;;2.25;2.25;;;;;;;;4972629;28;45497;-66
2022/06/10 07:39:11;;;;;;;;;2.00;2.00;;;;;;;;4972640;28;45751;-66
2022/06/10 07:44:20;;;;;;;;;1.25;1.25;;;;;;;;4973109;28;45383;-66
2022/06/10 07:46:47;;;;;;;;;1.25;1.25;;;;;;;;4969435;28;45871;-66
2022/06/10 07:49:12;;;;;;;;;2.00;2.00;;;;;;;;4972013;28;46538;-66
2022/06/10 07:51:38;;;;;;;;;2.00;2.00;;;;;;;;4972452;28;45344;-67
2022/06/10 07:54:03;;;;;;;;;3.00;2.00;;;;;;;;4972652;28;45523;-67
2022/06/10 07:56:28;;;;;;;;;1.00;0.25;;;;;;;;4972657;28;45453;-66
2022/06/10 07:58:57;;;;;;;;;5.00;2.00;;;;;;;;4972917;28;45562;-66
2022/06/10 08:01:22;;;;;;;;;3.00;2.00;;;;;;;;4972295;28;45378;-66
2022/06/10 08:03:48;;;;;;;;;4.00;2.00;;;;;;;;5003693;28;45429;-66
2022/06/10 08:06:14;;;;;;;;;2.50;1.50;;;;;;;;4972386;28;45565;-66
2022/06/10 08:08:39;;;;;;;;;1.25;1.00;;;;;;;;4972491;28;45531;-64
2022/06/10 08:11:04;;;;;;;;;2.00;2.00;;;;;;;;4971487;28;46142;-66
2022/06/10 08:13:30;;;;;;;;;2.50;2.50;;;;;;;;4972251;28;45521;-66
2022/06/10 08:15:55;;;;;;;;;2.50;2.00;;;;;;;;4972157;28;45403;-67
2022/06/10 08:18:21;;;;;;;;;2.00;2.00;;;;;;;;4972131;28;46248;-66
2022/06/10 08:23:31;;;;;;;;;2.25;2.25;;;;;;;;4972378;28;45794;-65
2022/06/10 08:25:58;;;;;;;;;1.50;1.50;;;;;;;;4972587;28;45834;-66
2022/06/10 08:28:23;;;;;;;;;1.00;1.00;;;;;;;;4971821;28;46526;-66
2022/06/10 08:30:49;;;;;;;;;1.75;1.00;;;;;;;;4972903;28;45427;-66
2022/06/10 08:33:14;;;;;;;;;1.75;1.00;;;;;;;;4974162;28;45471;-65
2022/06/10 08:35:39;;;;;;;;;0.50;0.50;;;;;;;;4975618;28;45692;-66
2022/06/10 08:38:06;;;;;;;;;2.50;0.25;;;;;;;;4990942;28;46243;-66
2022/06/10 08:40:34;;;;;;;;;1.00;1.00;;;;;;;;4973442;28;45654;-66
2022/06/10 08:43:03;;;;;;;;;0.50;0.50;;;;;;;;4975219;28;45394;-66
2022/06/10 08:45:37;;;;;;;;;0.00;0.00;;;;;;;;4975381;28;45596;-66
2022/06/10 08:48:05;;;;;;;;;1.75;0.25;;;;;;;;4975122;28;45903;-66
2022/06/10 08:50:48;;;;;;;;;0.25;0.25;;;;;;;;4975249;28;45653;-65
2022/06/10 08:53:19;;;;;;;;;1.50;1.50;;;;;;;;4990738;28;45496;-66
2022/06/10 08:55:50;;;;;;;;;0.00;0.00;;;;;;;;4975424;28;45473;-66
2022/06/10 08:58:26;;;;;;;;;0.25;0.25;;;;;;;;4974930;28;46605;-65
2022/06/10 09:00:53;;;;;;;;;0.00;0.00;;;;;;;;4975161;28;45469;-65
2022/06/10 09:03:28;;;;;;;;;1.00;1.00;;;;;;;;4973841;28;45594;-65
2022/06/10 09:05:57;;;;;;;;;1.00;1.00;;;;;;;;5006386;28;45571;-66
2022/06/10 09:08:25;;;;;;;;;2.25;1.00;;;;;;;;4989928;28;46715;-66
2022/06/10 09:10:54;;;;;;;;;1.25;1.00;;;;;;;;4975162;28;45524;-66
2022/06/10 09:13:28;;;;;;;;;0.75;0.75;;;;;;;;5006340;28;45497;-66
2022/06/10 09:16:03;;;;;;;;;1.75;1.75;;;;;;;;4974786;28;45396;-66
2022/06/10 09:18:47;;;;;;;;;1.00;1.00;;;;;;;;4974310;28;46274;-66
2022/06/10 09:21:32;;;;;;;;;0.00;0.00;;;;;;;;4974397;28;45546;-64
2022/06/10 09:23:59;;;;;;;;;2.00;2.00;;;;;;;;4961573;28;45993;-65
2022/06/10 09:26:39;;;;;;;;;1.75;1.75;;;;;;;;4975012;28;45560;-65
2022/06/10 09:29:04;;;;;;;;;0.00;0.00;;;;;;;;4990052;28;47941;-64
2022/06/10 09:31:38;;;;;;;;;0.00;0.00;;;;;;;;4971868;28;45588;-72
2022/06/10 09:34:09;;;;;;;;;2.00;0.50;;;;;;;;4978843;28;45585;-64
2022/06/10 09:36:45;;;;;;;;;1.00;1.00;;;;;;;;4974008;28;45408;-67
2022/06/10 09:42:25;;;;;;;;;1.25;1.25;;;;;;;;4973118;28;45487;-69
2022/06/10 09:45:00;;;;;;;;;1.00;1.00;;;;;;;;4960231;28;45630;-66
2022/06/10 09:47:37;;;;;;;;;1.00;1.00;;;;;;;;4972949;28;45491;-68
2022/06/10 09:50:04;;;;;;;;;2.00;1.00;;;;;;;;4973943;28;45846;-68
2022/06/10 09:52:33;;;;;;;;;1.25;1.25;;;;;;;;4973633;28;45576;-65
2022/06/10 09:55:16;;;;;;;;;1.50;1.00;;;;;;;;4973880;28;45490;-67
2022/06/10 09:57:42;;;;;;;;;1.75;0.75;;;;;;;;4965719;28;45664;-66
2022/06/10 10:00:18;;;;;;;;;0.50;0.50;;;;;;;;4964927;28;46287;-68
2022/06/10 10:03:02;;;;;;;;;2.25;1.00;;;;;;;;4971363;28;46039;-65
2022/06/10 10:05:30;;;;;;;;;2.25;2.00;;;;;;;;4972063;28;45534;-66
2022/06/10 10:08:05;;;;;;;;;0.00;0.00;;;;;;;;4975066;28;46078;-68
2022/06/10 10:10:39;;;;;;;;;1.00;1.00;;;;;;;;4987711;28;47027;-63
2022/06/10 10:13:20;;;;;;;;;0.25;0.25;;;;;;;;4982953;28;46692;-64
2022/06/10 10:15:53;;;;;;;;;2.00;1.00;;;;;;;;4998910;28;45622;-65
2022/06/10 10:18:32;;;;;;;;;1.00;1.00;;;;;;;;5008947;28;48098;-66
2022/06/10 10:21:00;;;;;;;;;1.50;0.25;;;;;;;;4988396;28;45917;-67
2022/06/10 10:23:30;;;;;;;;;3.50;2.00;;;;;;;;4991142;28;45585;-68
2022/06/10 10:25:55;;;;;;;;;2.00;1.75;;;;;;;;4985812;28;45995;-66
2022/06/10 10:28:22;;;;;;;;;1.00;1.00;;;;;;;;4988626;28;45497;-64
2022/06/10 10:30:55;;;;;;;;;1.50;1.50;;;;;;;;4984306;28;46773;-66
2022/06/10 10:33:20;;;;;;;;;1.00;1.00;;;;;;;;4988402;28;45526;-67
2022/06/10 10:35:50;;;;;;;;;3.25;1.00;;;;;;;;4987455;28;45498;-67
2022/06/10 10:38:28;;;;;;;;;0.75;0.50;;;;;;;;4988356;28;45565;-67
2022/06/10 10:40:53;;;;;;;;;2.25;1.00;;;;;;;;4991269;28;47661;-67
2022/06/10 10:43:27;;;;;;;;;0.50;0.50;;;;;;;;4990573;28;45527;-67
2022/06/10 10:45:52;;;;;;;;;1.00;1.00;;;;;;;;4988713;28;45508;-65
2022/06/10 10:48:20;;;;;;;;;1.00;1.00;;;;;;;;5019779;28;45824;-67
2022/06/10 10:51:05;;;;;;;;;1.00;1.00;;;;;;;;4984959;28;46628;-66
2022/06/10 10:53:36;;;;;;;;;0.50;0.50;;;;;;;;4987203;28;45422;-66
2022/06/10 10:56:02;;;;;;;;;0.00;0.00;;;;;;;;4998937;28;45902;-66
2022/06/10 10:58:30;;;;;;;;;0.00;0.00;;;;;;;;4988349;28;45488;-67
2022/06/10 11:01:01;;;;;;;;;1.00;1.00;;;;;;;;4983803;28;47628;-67
2022/06/10 11:03:26;;;;;;;;;3.00;3.00;;;;;;;;4987934;28;45620;-67
2022/06/10 11:05:52;;;;;;;;;0.75;0.75;;;;;;;;4988301;28;45485;-66
2022/06/10 11:08:29;;;;;;;;;1.00;1.00;;;;;;;;4987880;28;45743;-65
2022/06/10 11:11:00;;;;;;;;;2.75;1.75;;;;;;;;4989351;28;46957;-66
2022/06/10 11:13:30;;;;;;;;;1.00;1.00;;;;;;;;4983704;28;45581;-67
2022/06/10 11:16:15;;;;;;;;;3.00;2.00;;;;;;;;4988013;28;45537;-66
2022/06/10 11:18:41;;;;;;;;;3.50;2.50;;;;;;;;4984487;28;45466;-68
2022/06/10 11:21:06;;;;;;;;;0.00;0.00;;;;;;;;4986804;28;45530;-67
2022/06/10 11:23:32;;;;;;;;;1.50;1.50;;;;;;;;4987848;28;45444;-66
2022/06/10 11:26:14;;;;;;;;;0.50;0.25;;;;;;;;4987111;28;45375;-66
2022/06/10 11:28:40;;;;;;;;;2.25;2.25;;;;;;;;4991462;28;45452;-66
2022/06/10 11:31:18;;;;;;;;;1.00;1.00;;;;;;;;4981599;28;45861;-67
2022/06/10 11:33:45;;;;;;;;;1.75;1.50;;;;;;;;4998047;28;46144;-67
2022/06/10 11:36:12;;;;;;;;;2.00;2.00;;;;;;;;4978412;28;45689;-67
2022/06/10 11:38:45;;;;;;;;;2.00;1.00;;;;;;;;4982708;28;45637;-66
2022/06/10 11:41:22;;;;;;;;;1.50;1.50;;;;;;;;4994761;28;48621;-67
2022/06/10 11:43:50;;;;;;;;;1.00;1.00;;;;;;;;4985131;28;45507;-66
2022/06/10 11:46:28;;;;;;;;;0.00;0.00;;;;;;;;4986357;28;45498;-67
2022/06/10 11:48:54;;;;;;;;;1.75;1.75;;;;;;;;5014705;28;45627;-67
2022/06/10 11:51:20;;;;;;;;;0.75;0.75;;;;;;;;4987185;28;45620;-67
2022/06/10 11:53:53;;;;;;;;;3.50;1.50;;;;;;;;5019618;28;45561;-67
2022/06/10 11:59:45;;;;;;;;;0.75;0.75;;;;;;;;4987955;28;45497;-66
2022/06/10 12:02:13;;;;;;;;;1.00;1.00;;;;;;;;4998852;28;48190;-66
2022/06/10 12:04:44;;;;;;;;;2.25;1.25;;;;;;;;5018838;28;46485;-67
2022/06/10 12:07:15;;;;;;;;;0.75;0.75;;;;;;;;4981101;28;45454;-66
2022/06/10 12:09:43;;;;;;;;;1.75;1.75;;;;;;;;4987101;28;45447;-65
2022/06/10 12:12:08;;;;;;;;;1.00;1.00;;;;;;;;4987010;28;47370;-67
2022/06/10 12:14:42;;;;;;;;;1.00;1.00;;;;;;;;5015892;28;46082;-66
2022/06/10 12:17:17;;;;;;;;;2.50;1.25;;;;;;;;5023717;28;45446;-67
2022/06/10 12:19:48;;;;;;;;;1.00;1.00;;;;;;;;4989652;28;45447;-66
2022/06/10 12:22:14;;;;;;;;;1.00;1.00;;;;;;;;4986896;28;45746;-67
2022/06/10 12:24:41;;;;;;;;;2.50;2.00;;;;;;;;4982340;28;45580;-67
2022/06/10 12:27:12;;;;;;;;;2.25;2.00;;;;;;;;4986360;28;45505;-68
2022/06/10 12:29:37;;;;;;;;;2.25;1.50;;;;;;;;4986472;28;45514;-67
2022/06/10 12:32:21;;;;;;;;;1.00;1.00;;;;;;;;5018122;28;47596;-66
2022/06/10 12:34:52;;;;;;;;;1.50;1.50;;;;;;;;4990094;28;46184;-66
2022/06/10 12:37:22;;;;;;;;;0.50;0.50;;;;;;;;4977101;28;45557;-66
2022/06/10 12:39:47;;;;;;;;;2.50;2.25;;;;;;;;4985419;28;45590;-67
2022/06/10 12:42:17;;;;;;;;;1.50;1.50;;;;;;;;4986865;28;45745;-66
2022/06/10 12:44:46;;;;;;;;;0.25;0.25;;;;;;;;4983430;28;45466;-68
2022/06/10 12:47:15;;;;;;;;;3.00;1.00;;;;;;;;4988008;28;45545;-67
2022/06/10 12:49:44;;;;;;;;;4.25;2.00;;;;;;;;5014766;28;45624;-66
2022/06/10 12:52:18;;;;;;;;;2.00;2.00;;;;;;;;4985059;28;47585;-67
2022/06/10 12:54:52;;;;;;;;;2.75;1.25;;;;;;;;5014217;28;45475;-66
2022/06/10 12:57:28;;;;;;;;;1.00;1.00;;;;;;;;4996417;28;45461;-67
2022/06/10 13:00:13;;;;;;;;;1.00;1.00;;;;;;;;5018532;28;46004;-68
2022/06/10 13:02:52;;;;;;;;;3.00;3.00;;;;;;;;4983170;28;46576;-66
2022/06/10 13:05:22;;;;;;;;;1.00;1.00;;;;;;;;4984002;28;45478;-67
2022/06/10 13:07:49;;;;;;;;;1.75;1.75;;;;;;;;4984146;28;45449;-66
2022/06/10 13:10:30;;;;;;;;;2.75;2.00;;;;;;;;4979540;28;45446;-66
2022/06/10 13:12:58;;;;;;;;;2.00;2.00;;;;;;;;4972624;28;47439;-67
2022/06/10 13:15:25;;;;;;;;;1.00;1.00;;;;;;;;5007232;28;45636;-66
2022/06/10 13:18:19;;;;;;;;;1.00;1.00;;;;;;;;4973926;28;45653;-67
2022/06/10 13:20:45;;;;;;;;;1.00;1.00;;;;;;;;4969648;28;45550;-68
2022/06/10 13:23:15;;;;;;;;;1.50;1.00;;;;;;;;4975104;28;46403;-67
2022/06/10 13:25:47;;;;;;;;;2.00;0.00;;;;;;;;4974647;28;45533;-67
2022/06/10 13:28:13;;;;;;;;;2.00;1.25;;;;;;;;4972267;28;45411;-67
2022/06/10 13:30:38;;;;;;;;;1.00;1.00;;;;;;;;4977258;28;45532;-68
2022/06/10 13:33:06;;;;;;;;;0.00;0.00;;;;;;;;5021025;28;48753;-68
2022/06/10 13:35:32;;;;;;;;;1.50;1.00;;;;;;;;5012065;28;46243;-69
2022/06/10 13:37:59;;;;;;;;;2.00;2.00;;;;;;;;4988759;28;45537;-68
2022/06/10 13:40:26;;;;;;;;;1.00;1.00;;;;;;;;4986510;28;45543;-66
2022/06/10 13:42:59;;;;;;;;;1.00;1.00;;;;;;;;4984992;28;46449;-67
2022/06/10 13:45:30;;;;;;;;;1.00;1.00;;;;;;;;4983495;28;46092;-67
2022/06/10 13:47:56;;;;;;;;;1.00;1.00;;;;;;;;4993425;28;45622;-67
2022/06/10 13:50:46;;;;;;;;;1.00;1.00;;;;;;;;4983193;28;45842;-67
2022/06/10 13:53:20;;;;;;;;;1.00;1.00;;;;;;;;4989625;28;45485;-66
2022/06/10 13:55:51;;;;;;;;;1.00;1.00;;;;;;;;4981258;28;47654;-67
2022/06/10 13:58:20;;;;;;;;;0.50;0.50;;;;;;;;4988150;28;45424;-68
2022/06/10 14:00:47;;;;;;;;;0.25;0.25;;;;;;;;4982983;28;45461;-68
2022/06/10 14:03:33;;;;;;;;;1.00;1.00;;;;;;;;4995319;28;47504;-66
2022/06/10 14:06:14;;;;;;;;;1.00;1.00;;;;;;;;4976075;28;45878;-66
2022/06/10 14:08:45;;;;;;;;;1.00;1.00;;;;;;;;4979728;28;45440;-68
2022/06/10 14:11:12;;;;;;;;;1.00;1.00;;;;;;;;5014328;28;45774;-69
2022/06/10 14:13:37;;;;;;;;;1.00;1.00;;;;;;;;4981596;28;45768;-67
2022/06/10 14:16:03;;;;;;;;;1.25;1.25;;;;;;;;4974791;28;45450;-67
2022/06/10 14:18:30;;;;;;;;;1.75;1.75;;;;;;;;4974643;28;45536;-68
2022/06/10 14:20:58;;;;;;;;;1.00;1.00;;;;;;;;5019676;28;45555;-67
2022/06/10 14:23:26;;;;;;;;;1.00;1.00;;;;;;;;4976020;28;45552;-67
2022/06/10 14:26:03;;;;;;;;;2.50;1.50;;;;;;;;4980504;28;45469;-68
2022/06/10 14:28:28;;;;;;;;;1.75;1.75;;;;;;;;4982950;28;46112;-67
2022/06/10 14:30:55;;;;;;;;;1.00;1.00;;;;;;;;4979065;28;45465;-68
2022/06/10 14:33:24;;;;;;;;;4.50;3.00;;;;;;;;4974905;28;45800;-67
2022/06/10 14:35:52;;;;;;;;;1.25;1.25;;;;;;;;4978920;28;45493;-68
2022/06/10 14:38:24;;;;;;;;;1.00;1.00;;;;;;;;5007376;28;45480;-68
2022/06/10 14:40:55;;;;;;;;;2.00;2.00;;;;;;;;4987609;28;45547;-68
2022/06/10 14:43:23;;;;;;;;;2.50;2.50;;;;;;;;4984588;28;45612;-66
2022/06/10 14:46:00;;;;;;;;;1.75;1.75;;;;;;;;4984057;28;46768;-66
2022/06/10 14:48:30;;;;;;;;;2.00;2.00;;;;;;;;4980991;28;45500;-65
2022/06/10 14:51:08;;;;;;;;;1.00;1.00;;;;;;;;4984120;28;45579;-67
2022/06/10 14:53:33;;;;;;;;;2.75;2.75;;;;;;;;4980169;28;45989;-66
2022/06/10 14:55:59;;;;;;;;;0.75;0.75;;;;;;;;4984472;28;45507;-67
2022/06/10 14:58:24;;;;;;;;;2.25;2.25;;;;;;;;4979080;28;45531;-67
2022/06/10 15:00:50;;;;;;;;;3.50;1.00;;;;;;;;4986862;28;45396;-67
2022/06/10 15:03:15;;;;;;;;;4.00;2.00;;;;;;;;4975944;28;47545;-67
2022/06/10 15:08:25;;;;;;;;;2.25;2.25;;;;;;;;4980852;28;45316;-66
2022/06/10 15:10:50;;;;;;;;;2.50;2.50;;;;;;;;4991518;28;45662;-64
2022/06/10 15:13:34;;;;;;;;;2.00;2.00;;;;;;;;4988497;28;46255;-67